sensor_id;sensor_type;location;lat;lon;timestamp;P1;durP1;ratioP1;P2;durP2;ratioP2
73869;SDS011;64924;42.140;24.762;2023-02-15T00:01:08;20.42;;;13.98;;
73869;SDS011;64924;42.140;24.762;2023-02-15T00:06:00;19.40;;;13.23;;
73869;SDS011;64924;42.140;24.762;2023-02-15T00:08:26;21.48;;;13.75;;
73869;SDS011;64924;42.140;24.762;2023-02-15T00:10:52;22.10;;;13.85;;
73869;SDS011;64924;42.140;24.762;2023-02-15T00:13:17;20.70;;;13.77;;
73869;SDS011;64924;42.140;24.762;2023-02-15T00:15:43;22.05;;;14.15;;
73869;SDS011;64924;42.140;24.762;2023-02-15T00:18:08;23.30;;;15.35;;
73869;SDS011;64924;42.140;24.762;2023-02-15T00:20:34;25.20;;;15.43;;
73869;SDS011;64924;42.140;24.762;2023-02-15T00:23:00;22.55;;;14.85;;
73869;SDS011;64924;42.140;24.762;2023-02-15T00:25:25;24.45;;;15.48;;
73869;SDS011;64924;42.140;24.762;2023-02-15T00:27:51;24.90;;;15.77;;
73869;SDS011;64924;42.140;24.762;2023-02-15T00:30:16;25.10;;;16.33;;
73869;SDS011;64924;42.140;24.762;2023-02-15T00:32:41;25.88;;;15.50;;
73869;SDS011;64924;42.140;24.762;2023-02-15T00:35:07;26.70;;;15.95;;
73869;SDS011;64924;42.140;24.762;2023-02-15T00:37:34;22.83;;;15.68;;
73869;SDS011;64924;42.140;24.762;2023-02-15T00:39:59;29.90;;;17.75;;
73869;SDS011;64924;42.140;24.762;2023-02-15T00:42:25;27.00;;;16.50;;
73869;SDS011;64924;42.140;24.762;2023-02-15T00:44:50;31.20;;;17.13;;
73869;SDS011;64924;42.140;24.762;2023-02-15T00:47:16;25.95;;;17.02;;
73869;SDS011;64924;42.140;24.762;2023-02-15T00:49:41;25.92;;;16.80;;
73869;SDS011;64924;42.140;24.762;2023-02-15T00:52:07;28.17;;;17.42;;
73869;SDS011;64924;42.140;24.762;2023-02-15T00:54:32;26.13;;;17.55;;
73869;SDS011;64924;42.140;24.762;2023-02-15T00:56:59;29.45;;;17.25;;
73869;SDS011;64924;42.140;24.762;2023-02-15T00:59:25;26.45;;;17.65;;
73869;SDS011;64924;42.140;24.762;2023-02-15T01:01:50;25.27;;;16.92;;
73869;SDS011;64924;42.140;24.762;2023-02-15T01:04:16;27.98;;;16.13;;
73869;SDS011;64924;42.140;24.762;2023-02-15T01:06:41;30.67;;;17.73;;
73869;SDS011;64924;42.140;24.762;2023-02-15T01:09:07;27.90;;;17.40;;
73869;SDS011;64924;42.140;24.762;2023-02-15T01:11:32;27.95;;;16.63;;
73869;SDS011;64924;42.140;24.762;2023-02-15T01:13:58;28.70;;;17.45;;
73869;SDS011;64924;42.140;24.762;2023-02-15T01:16:24;24.88;;;16.35;;
73869;SDS011;64924;42.140;24.762;2023-02-15T01:18:52;28.77;;;18.92;;
73869;SDS011;64924;42.140;24.762;2023-02-15T01:21:20;31.45;;;17.42;;
73869;SDS011;64924;42.140;24.762;2023-02-15T01:23:47;29.15;;;18.20;;
73869;SDS011;64924;42.140;24.762;2023-02-15T01:26:14;25.35;;;17.65;;
73869;SDS011;64924;42.140;24.762;2023-02-15T01:28:40;28.70;;;17.75;;
73869;SDS011;64924;42.140;24.762;2023-02-15T01:31:06;27.67;;;17.23;;
73869;SDS011;64924;42.140;24.762;2023-02-15T01:33:37;30.35;;;18.48;;
73869;SDS011;64924;42.140;24.762;2023-02-15T01:36:03;27.08;;;17.63;;
73869;SDS011;64924;42.140;24.762;2023-02-15T01:38:29;29.42;;;17.83;;
73869;SDS011;64924;42.140;24.762;2023-02-15T01:40:55;29.38;;;18.38;;
73869;SDS011;64924;42.140;24.762;2023-02-15T01:43:51;30.08;;;19.27;;
73869;SDS011;64924;42.140;24.762;2023-02-15T01:46:35;28.48;;;18.00;;
73869;SDS011;64924;42.140;24.762;2023-02-15T01:49:13;26.98;;;17.40;;
73869;SDS011;64924;42.140;24.762;2023-02-15T01:51:42;32.58;;;19.52;;
73869;SDS011;64924;42.140;24.762;2023-02-15T01:54:21;29.95;;;19.63;;
73869;SDS011;64924;42.140;24.762;2023-02-15T01:56:54;29.70;;;18.25;;
73869;SDS011;64924;42.140;24.762;2023-02-15T01:59:26;32.17;;;19.25;;
73869;SDS011;64924;42.140;24.762;2023-02-15T02:01:52;31.63;;;19.48;;
73869;SDS011;64924;42.140;24.762;2023-02-15T02:04:43;32.30;;;20.58;;
73869;SDS011;64924;42.140;24.762;2023-02-15T02:07:36;35.42;;;19.45;;
73869;SDS011;64924;42.140;24.762;2023-02-15T02:10:05;32.25;;;20.60;;
73869;SDS011;64924;42.140;24.762;2023-02-15T02:12:33;29.95;;;19.10;;
73869;SDS011;64924;42.140;24.762;2023-02-15T02:15:00;32.83;;;19.63;;
73869;SDS011;64924;42.140;24.762;2023-02-15T02:31:36;35.17;;;20.17;;
73869;SDS011;64924;42.140;24.762;2023-02-15T02:37:16;35.50;;;19.92;;
73869;SDS011;64924;42.140;24.762;2023-02-15T02:42:17;34.28;;;20.13;;
73869;SDS011;64924;42.140;24.762;2023-02-15T02:44:49;32.22;;;19.92;;
73869;SDS011;64924;42.140;24.762;2023-02-15T02:47:23;32.30;;;19.33;;
73869;SDS011;64924;42.140;24.762;2023-02-15T02:50:12;31.15;;;19.33;;
73869;SDS011;64924;42.140;24.762;2023-02-15T02:52:42;30.17;;;18.17;;
73869;SDS011;64924;42.140;24.762;2023-02-15T02:58:09;31.55;;;18.42;;
73869;SDS011;64924;42.140;24.762;2023-02-15T03:01:24;32.47;;;19.45;;
73869;SDS011;64924;42.140;24.762;2023-02-15T03:03:44;30.40;;;18.58;;
73869;SDS011;64924;42.140;24.762;2023-02-15T03:06:40;28.52;;;17.88;;
73869;SDS011;64924;42.140;24.762;2023-02-15T03:09:45;32.17;;;18.30;;
73869;SDS011;64924;42.140;24.762;2023-02-15T03:12:31;30.05;;;18.73;;
73869;SDS011;64924;42.140;24.762;2023-02-15T03:15:01;29.20;;;18.90;;
73869;SDS011;64924;42.140;24.762;2023-02-15T03:17:32;28.77;;;19.17;;
73869;SDS011;64924;42.140;24.762;2023-02-15T03:20:08;32.67;;;19.55;;
73869;SDS011;64924;42.140;24.762;2023-02-15T03:22:44;32.25;;;19.95;;
73869;SDS011;64924;42.140;24.762;2023-02-15T03:27:47;35.10;;;21.17;;
73869;SDS011;64924;42.140;24.762;2023-02-15T03:30:17;35.63;;;21.77;;
73869;SDS011;64924;42.140;24.762;2023-02-15T03:32:45;34.83;;;23.05;;
73869;SDS011;64924;42.140;24.762;2023-02-15T03:35:14;33.53;;;20.40;;
73869;SDS011;64924;42.140;24.762;2023-02-15T03:37:53;33.35;;;20.33;;
73869;SDS011;64924;42.140;24.762;2023-02-15T03:40:37;34.88;;;19.88;;
73869;SDS011;64924;42.140;24.762;2023-02-15T03:45:56;32.20;;;20.63;;
73869;SDS011;64924;42.140;24.762;2023-02-15T03:48:27;31.75;;;19.48;;
73869;SDS011;64924;42.140;24.762;2023-02-15T03:50:58;33.78;;;20.65;;
73869;SDS011;64924;42.140;24.762;2023-02-15T03:53:46;35.35;;;21.05;;
73869;SDS011;64924;42.140;24.762;2023-02-15T03:56:14;35.42;;;22.58;;
73869;SDS011;64924;42.140;24.762;2023-02-15T03:58:39;34.97;;;21.02;;
73869;SDS011;64924;42.140;24.762;2023-02-15T04:01:34;34.53;;;22.15;;
73869;SDS011;64924;42.140;24.762;2023-02-15T04:04:22;33.13;;;20.83;;
73869;SDS011;64924;42.140;24.762;2023-02-15T04:06:50;37.85;;;21.40;;
73869;SDS011;64924;42.140;24.762;2023-02-15T04:09:15;34.60;;;21.10;;
73869;SDS011;64924;42.140;24.762;2023-02-15T04:12:00;36.75;;;21.92;;
73869;SDS011;64924;42.140;24.762;2023-02-15T04:14:25;36.90;;;22.13;;
73869;SDS011;64924;42.140;24.762;2023-02-15T04:17:09;34.33;;;20.98;;
73869;SDS011;64924;42.140;24.762;2023-02-15T04:19:35;34.63;;;22.00;;
73869;SDS011;64924;42.140;24.762;2023-02-15T04:22:19;32.58;;;20.40;;
73869;SDS011;64924;42.140;24.762;2023-02-15T04:25:03;34.92;;;21.42;;
73869;SDS011;64924;42.140;24.762;2023-02-15T04:27:39;32.13;;;20.75;;
73869;SDS011;64924;42.140;24.762;2023-02-15T04:30:09;32.45;;;20.40;;
73869;SDS011;64924;42.140;24.762;2023-02-15T04:32:37;34.33;;;19.80;;
73869;SDS011;64924;42.140;24.762;2023-02-15T04:35:03;30.02;;;19.75;;
73869;SDS011;64924;42.140;24.762;2023-02-15T04:37:30;27.88;;;18.70;;
73869;SDS011;64924;42.140;24.762;2023-02-15T04:39:56;32.92;;;20.65;;
73869;SDS011;64924;42.140;24.762;2023-02-15T04:42:23;31.27;;;18.98;;
73869;SDS011;64924;42.140;24.762;2023-02-15T04:44:52;30.67;;;20.73;;
73869;SDS011;64924;42.140;24.762;2023-02-15T04:47:18;36.08;;;21.33;;
73869;SDS011;64924;42.140;24.762;2023-02-15T04:49:43;36.60;;;21.48;;
73869;SDS011;64924;42.140;24.762;2023-02-15T04:52:09;37.63;;;21.90;;
73869;SDS011;64924;42.140;24.762;2023-02-15T04:54:35;31.23;;;20.13;;
73869;SDS011;64924;42.140;24.762;2023-02-15T04:57:00;37.15;;;21.73;;
73869;SDS011;64924;42.140;24.762;2023-02-15T04:59:26;33.38;;;19.88;;
73869;SDS011;64924;42.140;24.762;2023-02-15T05:01:52;37.78;;;21.38;;
73869;SDS011;64924;42.140;24.762;2023-02-15T05:04:17;30.35;;;19.95;;
73869;SDS011;64924;42.140;24.762;2023-02-15T05:06:43;32.40;;;20.98;;
73869;SDS011;64924;42.140;24.762;2023-02-15T05:09:08;36.20;;;20.17;;
73869;SDS011;64924;42.140;24.762;2023-02-15T05:11:37;37.75;;;21.85;;
73869;SDS011;64924;42.140;24.762;2023-02-15T05:14:02;36.78;;;21.95;;
73869;SDS011;64924;42.140;24.762;2023-02-15T05:16:27;38.17;;;21.63;;
73869;SDS011;64924;42.140;24.762;2023-02-15T05:18:53;35.30;;;21.95;;
73869;SDS011;64924;42.140;24.762;2023-02-15T05:21:18;31.77;;;20.33;;
73869;SDS011;64924;42.140;24.762;2023-02-15T05:23:44;34.28;;;21.40;;
73869;SDS011;64924;42.140;24.762;2023-02-15T05:26:10;34.97;;;21.83;;
73869;SDS011;64924;42.140;24.762;2023-02-15T05:28:56;33.13;;;19.77;;
73869;SDS011;64924;42.140;24.762;2023-02-15T05:31:21;35.92;;;21.58;;
73869;SDS011;64924;42.140;24.762;2023-02-15T05:33:47;35.33;;;20.88;;
73869;SDS011;64924;42.140;24.762;2023-02-15T05:36:12;34.85;;;21.08;;
73869;SDS011;64924;42.140;24.762;2023-02-15T05:38:38;35.75;;;21.85;;
73869;SDS011;64924;42.140;24.762;2023-02-15T05:41:08;34.25;;;22.88;;
73869;SDS011;64924;42.140;24.762;2023-02-15T05:43:35;34.85;;;21.42;;
73869;SDS011;64924;42.140;24.762;2023-02-15T05:46:01;36.38;;;23.15;;
73869;SDS011;64924;42.140;24.762;2023-02-15T05:48:27;37.45;;;25.33;;
73869;SDS011;64924;42.140;24.762;2023-02-15T05:50:59;34.10;;;22.92;;
73869;SDS011;64924;42.140;24.762;2023-02-15T05:53:33;33.95;;;19.42;;
73869;SDS011;64924;42.140;24.762;2023-02-15T05:56:00;30.73;;;19.42;;
73869;SDS011;64924;42.140;24.762;2023-02-15T05:58:31;31.98;;;20.10;;
73869;SDS011;64924;42.140;24.762;2023-02-15T06:00:58;28.90;;;18.55;;
73869;SDS011;64924;42.140;24.762;2023-02-15T06:03:24;28.33;;;20.10;;
73869;SDS011;64924;42.140;24.762;2023-02-15T06:05:51;33.72;;;20.33;;
73869;SDS011;64924;42.140;24.762;2023-02-15T06:08:17;27.40;;;17.83;;
73869;SDS011;64924;42.140;24.762;2023-02-15T06:10:43;29.77;;;19.98;;
73869;SDS011;64924;42.140;24.762;2023-02-15T06:13:10;26.00;;;18.50;;
73869;SDS011;64924;42.140;24.762;2023-02-15T06:15:35;32.22;;;20.23;;
73869;SDS011;64924;42.140;24.762;2023-02-15T06:18:01;32.05;;;19.15;;
73869;SDS011;64924;42.140;24.762;2023-02-15T06:20:27;33.90;;;22.33;;
73869;SDS011;64924;42.140;24.762;2023-02-15T06:22:52;35.63;;;22.52;;
73869;SDS011;64924;42.140;24.762;2023-02-15T06:25:18;33.22;;;20.90;;
73869;SDS011;64924;42.140;24.762;2023-02-15T06:27:43;31.15;;;21.27;;
73869;SDS011;64924;42.140;24.762;2023-02-15T06:30:09;28.00;;;20.10;;
73869;SDS011;64924;42.140;24.762;2023-02-15T06:32:35;30.45;;;20.45;;
73869;SDS011;64924;42.140;24.762;2023-02-15T06:35:01;30.05;;;20.08;;
73869;SDS011;64924;42.140;24.762;2023-02-15T06:37:27;27.90;;;19.77;;
73869;SDS011;64924;42.140;24.762;2023-02-15T06:39:52;32.42;;;21.35;;
73869;SDS011;64924;42.140;24.762;2023-02-15T06:42:18;29.05;;;20.33;;
73869;SDS011;64924;42.140;24.762;2023-02-15T06:44:44;30.60;;;21.23;;
73869;SDS011;64924;42.140;24.762;2023-02-15T06:47:10;27.20;;;19.50;;
73869;SDS011;64924;42.140;24.762;2023-02-15T06:49:36;28.95;;;19.70;;
73869;SDS011;64924;42.140;24.762;2023-02-15T06:52:02;29.67;;;20.83;;
73869;SDS011;64924;42.140;24.762;2023-02-15T06:54:28;33.60;;;21.00;;
73869;SDS011;64924;42.140;24.762;2023-02-15T06:56:53;29.25;;;20.20;;
73869;SDS011;64924;42.140;24.762;2023-02-15T06:59:19;26.35;;;19.67;;
73869;SDS011;64924;42.140;24.762;2023-02-15T07:01:44;25.10;;;16.95;;
73869;SDS011;64924;42.140;24.762;2023-02-15T07:04:10;28.10;;;18.90;;
73869;SDS011;64924;42.140;24.762;2023-02-15T07:06:35;27.10;;;19.17;;
73869;SDS011;64924;42.140;24.762;2023-02-15T07:09:01;24.85;;;17.25;;
73869;SDS011;64924;42.140;24.762;2023-02-15T07:11:27;23.58;;;17.23;;
73869;SDS011;64924;42.140;24.762;2023-02-15T07:14:11;23.27;;;17.90;;
73869;SDS011;64924;42.140;24.762;2023-02-15T07:16:37;25.27;;;19.08;;
73869;SDS011;64924;42.140;24.762;2023-02-15T07:19:03;26.35;;;19.23;;
73869;SDS011;64924;42.140;24.762;2023-02-15T07:21:28;25.75;;;19.08;;
73869;SDS011;64924;42.140;24.762;2023-02-15T07:23:55;23.80;;;18.02;;
73869;SDS011;64924;42.140;24.762;2023-02-15T07:26:22;26.65;;;19.02;;
73869;SDS011;64924;42.140;24.762;2023-02-15T07:28:48;34.35;;;17.45;;
73869;SDS011;64924;42.140;24.762;2023-02-15T07:31:14;26.92;;;16.88;;
73869;SDS011;64924;42.140;24.762;2023-02-15T07:33:39;31.55;;;18.80;;
73869;SDS011;64924;42.140;24.762;2023-02-15T07:36:05;27.65;;;17.75;;
73869;SDS011;64924;42.140;24.762;2023-02-15T07:38:35;25.85;;;17.25;;
73869;SDS011;64924;42.140;24.762;2023-02-15T07:41:03;23.45;;;17.63;;
73869;SDS011;64924;42.140;24.762;2023-02-15T07:43:33;26.38;;;16.58;;
73869;SDS011;64924;42.140;24.762;2023-02-15T07:46:01;26.35;;;17.00;;
73869;SDS011;64924;42.140;24.762;2023-02-15T07:48:28;24.13;;;17.77;;
73869;SDS011;64924;42.140;24.762;2023-02-15T07:50:53;23.58;;;16.98;;
73869;SDS011;64924;42.140;24.762;2023-02-15T07:53:19;26.90;;;15.73;;
73869;SDS011;64924;42.140;24.762;2023-02-15T07:55:44;23.10;;;17.13;;
73869;SDS011;64924;42.140;24.762;2023-02-15T07:58:10;23.48;;;16.88;;
73869;SDS011;64924;42.140;24.762;2023-02-15T08:00:35;21.20;;;16.10;;
73869;SDS011;64924;42.140;24.762;2023-02-15T08:03:21;26.73;;;17.95;;
73869;SDS011;64924;42.140;24.762;2023-02-15T08:05:49;21.33;;;16.80;;
73869;SDS011;64924;42.140;24.762;2023-02-15T08:08:14;24.85;;;16.38;;
73869;SDS011;64924;42.140;24.762;2023-02-15T08:13:49;24.30;;;16.63;;
73869;SDS011;64924;42.140;24.762;2023-02-15T08:17:04;25.70;;;17.55;;
73869;SDS011;64924;42.140;24.762;2023-02-15T08:19:11;23.58;;;17.35;;
73869;SDS011;64924;42.140;24.762;2023-02-15T08:21:38;28.05;;;17.55;;
73869;SDS011;64924;42.140;24.762;2023-02-15T08:24:05;20.50;;;16.27;;
73869;SDS011;64924;42.140;24.762;2023-02-15T08:26:32;22.95;;;18.10;;
73869;SDS011;64924;42.140;24.762;2023-02-15T08:28:59;25.38;;;18.33;;
73869;SDS011;64924;42.140;24.762;2023-02-15T08:31:26;24.90;;;17.55;;
73869;SDS011;64924;42.140;24.762;2023-02-15T08:33:52;24.60;;;18.75;;
73869;SDS011;64924;42.140;24.762;2023-02-15T08:36:20;23.95;;;17.73;;
73869;SDS011;64924;42.140;24.762;2023-02-15T08:38:46;24.25;;;18.48;;
73869;SDS011;64924;42.140;24.762;2023-02-15T08:41:14;26.00;;;16.98;;
73869;SDS011;64924;42.140;24.762;2023-02-15T08:43:39;24.42;;;17.35;;
73869;SDS011;64924;42.140;24.762;2023-02-15T08:46:06;24.75;;;17.50;;
73869;SDS011;64924;42.140;24.762;2023-02-15T08:48:32;25.27;;;16.83;;
73869;SDS011;64924;42.140;24.762;2023-02-15T08:50:57;23.60;;;17.13;;
73869;SDS011;64924;42.140;24.762;2023-02-15T08:53:23;23.85;;;16.33;;
73869;SDS011;64924;42.140;24.762;2023-02-15T08:55:55;25.23;;;17.00;;
73869;SDS011;64924;42.140;24.762;2023-02-15T08:58:21;22.83;;;17.02;;
73869;SDS011;64924;42.140;24.762;2023-02-15T09:00:46;23.17;;;17.10;;
73869;SDS011;64924;42.140;24.762;2023-02-15T09:03:12;23.05;;;15.80;;
73869;SDS011;64924;42.140;24.762;2023-02-15T09:05:37;21.20;;;15.63;;
73869;SDS011;64924;42.140;24.762;2023-02-15T09:08:03;21.10;;;16.10;;
73869;SDS011;64924;42.140;24.762;2023-02-15T09:10:29;22.35;;;16.50;;
73869;SDS011;64924;42.140;24.762;2023-02-15T09:12:54;25.15;;;17.55;;
73869;SDS011;64924;42.140;24.762;2023-02-15T09:15:19;23.92;;;17.50;;
73869;SDS011;64924;42.140;24.762;2023-02-15T09:17:45;27.38;;;18.23;;
73869;SDS011;64924;42.140;24.762;2023-02-15T09:20:10;24.20;;;17.50;;
73869;SDS011;64924;42.140;24.762;2023-02-15T09:22:36;32.13;;;21.52;;
73869;SDS011;64924;42.140;24.762;2023-02-15T09:25:02;23.10;;;17.13;;
73869;SDS011;64924;42.140;24.762;2023-02-15T09:27:27;27.58;;;18.27;;
73869;SDS011;64924;42.140;24.762;2023-02-15T09:29:54;23.30;;;17.10;;
73869;SDS011;64924;42.140;24.762;2023-02-15T09:32:19;25.48;;;17.88;;
73869;SDS011;64924;42.140;24.762;2023-02-15T09:34:45;22.80;;;16.45;;
73869;SDS011;64924;42.140;24.762;2023-02-15T09:37:10;22.27;;;16.40;;
73869;SDS011;64924;42.140;24.762;2023-02-15T09:39:37;20.35;;;16.30;;
73869;SDS011;64924;42.140;24.762;2023-02-15T09:47:39;19.48;;;15.00;;
73869;SDS011;64924;42.140;24.762;2023-02-15T09:50:28;36.70;;;16.75;;
73869;SDS011;64924;42.140;24.762;2023-02-15T10:01:46;20.55;;;15.73;;
73869;SDS011;64924;42.140;24.762;2023-02-15T10:07:30;22.92;;;16.65;;
73869;SDS011;64924;42.140;24.762;2023-02-15T10:16:08;22.85;;;16.55;;
73869;SDS011;64924;42.140;24.762;2023-02-15T10:26:43;21.73;;;14.82;;
73869;SDS011;64924;42.140;24.762;2023-02-15T10:31:49;26.25;;;17.92;;
73869;SDS011;64924;42.140;24.762;2023-02-15T10:50:51;23.67;;;14.65;;
73869;SDS011;64924;42.140;24.762;2023-02-15T11:07:06;23.13;;;14.05;;
73869;SDS011;64924;42.140;24.762;2023-02-15T11:09:40;22.33;;;14.43;;
73869;SDS011;64924;42.140;24.762;2023-02-15T11:12:12;28.40;;;16.23;;
73869;SDS011;64924;42.140;24.762;2023-02-15T11:17:56;71.25;;;17.23;;
73869;SDS011;64924;42.140;24.762;2023-02-15T11:20:46;26.10;;;15.52;;
73869;SDS011;64924;42.140;24.762;2023-02-15T11:23:15;20.58;;;14.02;;
73869;SDS011;64924;42.140;24.762;2023-02-15T11:25:44;25.98;;;14.77;;
73869;SDS011;64924;42.140;24.762;2023-02-15T11:28:47;16.40;;;12.60;;
73869;SDS011;64924;42.140;24.762;2023-02-15T11:31:16;18.90;;;12.32;;
73869;SDS011;64924;42.140;24.762;2023-02-15T11:33:46;18.80;;;12.95;;
73869;SDS011;64924;42.140;24.762;2023-02-15T11:36:17;22.30;;;13.50;;
73869;SDS011;64924;42.140;24.762;2023-02-15T11:38:47;27.13;;;14.25;;
73869;SDS011;64924;42.140;24.762;2023-02-15T11:41:18;22.90;;;14.95;;
73869;SDS011;64924;42.140;24.762;2023-02-15T11:46:24;19.20;;;13.57;;
73869;SDS011;64924;42.140;24.762;2023-02-15T11:48:50;20.10;;;14.10;;
73869;SDS011;64924;42.140;24.762;2023-02-15T11:51:16;21.70;;;14.32;;
73869;SDS011;64924;42.140;24.762;2023-02-15T11:53:44;17.38;;;12.85;;
73869;SDS011;64924;42.140;24.762;2023-02-15T11:56:18;18.70;;;12.35;;
73869;SDS011;64924;42.140;24.762;2023-02-15T11:58:59;21.38;;;12.88;;
73869;SDS011;64924;42.140;24.762;2023-02-15T12:06:54;18.02;;;13.10;;
73869;SDS011;64924;42.140;24.762;2023-02-15T12:12:25;21.27;;;13.75;;
73869;SDS011;64924;42.140;24.762;2023-02-15T12:14:56;18.45;;;13.98;;
73869;SDS011;64924;42.140;24.762;2023-02-15T12:17:34;19.88;;;14.27;;
73869;SDS011;64924;42.140;24.762;2023-02-15T12:22:38;18.23;;;12.48;;
73869;SDS011;64924;42.140;24.762;2023-02-15T12:25:26;19.15;;;12.55;;
73869;SDS011;64924;42.140;24.762;2023-02-15T12:28:02;19.67;;;12.88;;
73869;SDS011;64924;42.140;24.762;2023-02-15T12:30:34;26.63;;;13.75;;
73869;SDS011;64924;42.140;24.762;2023-02-15T12:35:33;21.50;;;13.80;;
73869;SDS011;64924;42.140;24.762;2023-02-15T12:40:36;21.65;;;14.40;;
73869;SDS011;64924;42.140;24.762;2023-02-15T12:43:03;26.55;;;12.68;;
73869;SDS011;64924;42.140;24.762;2023-02-15T12:45:35;18.35;;;12.13;;
73869;SDS011;64924;42.140;24.762;2023-02-15T12:48:18;18.42;;;12.80;;
73869;SDS011;64924;42.140;24.762;2023-02-15T12:50:54;18.58;;;12.55;;
73869;SDS011;64924;42.140;24.762;2023-02-15T12:53:38;20.15;;;12.13;;
73869;SDS011;64924;42.140;24.762;2023-02-15T12:56:08;19.88;;;12.70;;
73869;SDS011;64924;42.140;24.762;2023-02-15T12:58:38;18.75;;;13.20;;
73869;SDS011;64924;42.140;24.762;2023-02-15T13:01:18;21.08;;;11.65;;
73869;SDS011;64924;42.140;24.762;2023-02-15T13:04:05;18.13;;;11.48;;
73869;SDS011;64924;42.140;24.762;2023-02-15T13:06:47;15.43;;;12.13;;
73869;SDS011;64924;42.140;24.762;2023-02-15T13:09:20;17.90;;;12.48;;
73869;SDS011;64924;42.140;24.762;2023-02-15T13:12:09;17.23;;;12.82;;
73869;SDS011;64924;42.140;24.762;2023-02-15T13:14:45;20.92;;;12.73;;
73869;SDS011;64924;42.140;24.762;2023-02-15T13:17:16;16.85;;;12.13;;
73869;SDS011;64924;42.140;24.762;2023-02-15T13:19:44;13.60;;;11.20;;
73869;SDS011;64924;42.140;24.762;2023-02-15T13:22:14;18.40;;;11.05;;
73869;SDS011;64924;42.140;24.762;2023-02-15T13:24:43;16.25;;;11.05;;
73869;SDS011;64924;42.140;24.762;2023-02-15T13:27:19;17.02;;;11.27;;
73869;SDS011;64924;42.140;24.762;2023-02-15T13:29:51;17.52;;;12.25;;
73869;SDS011;64924;42.140;24.762;2023-02-15T13:32:28;18.65;;;12.23;;
73869;SDS011;64924;42.140;24.762;2023-02-15T13:35:01;21.10;;;12.13;;
73869;SDS011;64924;42.140;24.762;2023-02-15T13:40:15;15.57;;;11.18;;
73869;SDS011;64924;42.140;24.762;2023-02-15T13:42:46;18.45;;;10.65;;
73869;SDS011;64924;42.140;24.762;2023-02-15T13:45:24;15.98;;;11.23;;
73869;SDS011;64924;42.140;24.762;2023-02-15T13:48:16;19.92;;;12.18;;
73869;SDS011;64924;42.140;24.762;2023-02-15T14:10:53;19.45;;;12.55;;
73869;SDS011;64924;42.140;24.762;2023-02-15T14:24:42;19.05;;;13.52;;
73869;SDS011;64924;42.140;24.762;2023-02-15T14:27:56;17.48;;;13.63;;
73869;SDS011;64924;42.140;24.762;2023-02-15T14:32:51;20.65;;;13.65;;
73869;SDS011;64924;42.140;24.762;2023-02-15T14:35:21;18.17;;;13.43;;
73869;SDS011;64924;42.140;24.762;2023-02-15T14:48:46;21.35;;;14.10;;
73869;SDS011;64924;42.140;24.762;2023-02-15T14:54:54;21.10;;;13.95;;
73869;SDS011;64924;42.140;24.762;2023-02-15T14:59:27;20.30;;;13.55;;
73869;SDS011;64924;42.140;24.762;2023-02-15T15:09:37;21.98;;;14.43;;
73869;SDS011;64924;42.140;24.762;2023-02-15T15:14:45;34.58;;;18.95;;
73869;SDS011;64924;42.140;24.762;2023-02-15T15:17:13;27.52;;;16.92;;
73869;SDS011;64924;42.140;24.762;2023-02-15T15:22:39;28.65;;;17.48;;
73869;SDS011;64924;42.140;24.762;2023-02-15T15:25:11;29.13;;;18.95;;
73869;SDS011;64924;42.140;24.762;2023-02-15T15:27:58;63.65;;;35.17;;
73869;SDS011;64924;42.140;24.762;2023-02-15T15:49:35;21.90;;;15.10;;
73869;SDS011;64924;42.140;24.762;2023-02-15T15:52:08;35.05;;;19.30;;
73869;SDS011;64924;42.140;24.762;2023-02-15T15:54:40;25.27;;;17.83;;
73869;SDS011;64924;42.140;24.762;2023-02-15T15:57:12;115.05;;;85.70;;
73869;SDS011;64924;42.140;24.762;2023-02-15T15:59:46;36.90;;;23.83;;
73869;SDS011;64924;42.140;24.762;2023-02-15T16:02:15;33.08;;;19.50;;
73869;SDS011;64924;42.140;24.762;2023-02-15T16:04:43;52.75;;;32.60;;
73869;SDS011;64924;42.140;24.762;2023-02-15T16:07:27;85.55;;;52.45;;
73869;SDS011;64924;42.140;24.762;2023-02-15T16:09:57;152.02;;;90.15;;
73869;SDS011;64924;42.140;24.762;2023-02-15T16:12:45;246.75;;;139.82;;
73869;SDS011;64924;42.140;24.762;2023-02-15T16:15:20;83.70;;;48.05;;
73869;SDS011;64924;42.140;24.762;2023-02-15T16:17:54;53.13;;;33.63;;
73869;SDS011;64924;42.140;24.762;2023-02-15T16:20:23;45.15;;;27.73;;
73869;SDS011;64924;42.140;24.762;2023-02-15T16:28:08;48.10;;;24.55;;
73869;SDS011;64924;42.140;24.762;2023-02-15T16:30:37;47.47;;;24.52;;
73869;SDS011;64924;42.140;24.762;2023-02-15T16:33:14;56.33;;;30.88;;
73869;SDS011;64924;42.140;24.762;2023-02-15T16:35:55;49.03;;;29.33;;
73869;SDS011;64924;42.140;24.762;2023-02-15T16:41:06;49.70;;;27.23;;
73869;SDS011;64924;42.140;24.762;2023-02-15T16:43:32;59.50;;;30.35;;
73869;SDS011;64924;42.140;24.762;2023-02-15T16:46:02;48.42;;;26.52;;
73869;SDS011;64924;42.140;24.762;2023-02-15T16:48:30;45.45;;;25.98;;
73869;SDS011;64924;42.140;24.762;2023-02-15T16:50:57;37.17;;;22.98;;
73869;SDS011;64924;42.140;24.762;2023-02-15T16:53:25;59.88;;;29.40;;
73869;SDS011;64924;42.140;24.762;2023-02-15T16:55:56;62.28;;;33.67;;
73869;SDS011;64924;42.140;24.762;2023-02-15T16:58:28;61.10;;;32.05;;
73869;SDS011;64924;42.140;24.762;2023-02-15T17:01:08;59.97;;;31.95;;
73869;SDS011;64924;42.140;24.762;2023-02-15T17:03:38;77.90;;;38.78;;
73869;SDS011;64924;42.140;24.762;2023-02-15T17:06:05;69.80;;;34.90;;
73869;SDS011;64924;42.140;24.762;2023-02-15T17:08:45;67.00;;;35.72;;
73869;SDS011;64924;42.140;24.762;2023-02-15T17:11:21;71.15;;;37.78;;
73869;SDS011;64924;42.140;24.762;2023-02-15T17:16:36;71.85;;;41.90;;
73869;SDS011;64924;42.140;24.762;2023-02-15T17:19:09;73.20;;;37.30;;
73869;SDS011;64924;42.140;24.762;2023-02-15T17:21:41;61.67;;;30.80;;
73869;SDS011;64924;42.140;24.762;2023-02-15T17:24:21;55.60;;;31.38;;
73869;SDS011;64924;42.140;24.762;2023-02-15T17:26:54;50.03;;;27.83;;
73869;SDS011;64924;42.140;24.762;2023-02-15T17:37:25;35.88;;;21.27;;
73869;SDS011;64924;42.140;24.762;2023-02-15T17:42:51;37.53;;;22.08;;
73869;SDS011;64924;42.140;24.762;2023-02-15T17:45:17;35.25;;;20.30;;
73869;SDS011;64924;42.140;24.762;2023-02-15T17:47:43;38.78;;;23.13;;
73869;SDS011;64924;42.140;24.762;2023-02-15T17:50:21;34.95;;;22.85;;
73869;SDS011;64924;42.140;24.762;2023-02-15T17:52:50;45.70;;;25.55;;
73869;SDS011;64924;42.140;24.762;2023-02-15T17:55:17;64.35;;;35.85;;
73869;SDS011;64924;42.140;24.762;2023-02-15T18:00:34;50.08;;;28.45;;
73869;SDS011;64924;42.140;24.762;2023-02-15T18:03:21;48.83;;;30.00;;
73869;SDS011;64924;42.140;24.762;2023-02-15T18:06:07;53.40;;;30.85;;
73869;SDS011;64924;42.140;24.762;2023-02-15T18:08:52;44.90;;;26.92;;
73869;SDS011;64924;42.140;24.762;2023-02-15T18:11:36;48.97;;;29.42;;
73869;SDS011;64924;42.140;24.762;2023-02-15T18:14:02;44.25;;;24.98;;
73869;SDS011;64924;42.140;24.762;2023-02-15T18:16:33;47.83;;;26.63;;
73869;SDS011;64924;42.140;24.762;2023-02-15T18:19:00;42.22;;;25.27;;